Cordovilla, Spain

1:06 PM CET on February 09, 2016 (GMT +0100)
Pamplona | | Change Station
CLOSE
Current Station
Airport
Location: Pamplona,
Elevation: 1506 ft
Nearby Weather Stations

Elev 1506 ft 42.78 °N, 1.65 °W | Updated 6 minutes ago

Mostly Cloudy
Mostly Cloudy
57 °F
Feels Like 57 °F
N
18
Wind Variable Wind from SW
Gusts 34 mph

Today
High -- | Low -- °F
--% Chance of Precip.
Yesterday
High -- | Low -- °F
Precip. -- in
Pressure 29.83 in
Visibility 6.2 miles
Clouds Few 3000 ft
Mostly Cloudy 4500 ft
Dew Point 41 °F
Humidity 55%
Rainfall 0.00 in
Snow Depth Not available.
8:12 AM 6:29 PM
New Moon, 1% visible
METAR LEPP 091200Z 22016G30KT 170V290 9999 FEW030 BKN045 14/05 Q1010
Pressure 29.83 in
Visibility 6.2 miles
Clouds Few 3000 ft
Mostly Cloudy 4500 ft
Dew Point 41 °F
Humidity 55%
Rainfall 0.00 in
Snow Depth Not available.
8:12 AM 6:29 PM
New Moon, 1% visible
METAR LEPP 091200Z 22016G30KT 170V290 9999 FEW030 BKN045 14/05 Q1010

10-Day Weather Forecast

Almanac

Astronomy

Feb. 09, 2016 Rise Set
Actual Time
Civil Twilight
Nautical Twilight
Astronomical Twilight
Moon
Length of Visible Light
Length of Day
Tomorrow will be .
, % of the Moon is Illuminated

Today's Extremes

Country Highs Country Lows

Community

WunderPhotos

Upload Photos

1,891,565 photos uploaded!

WunderBlog® & News

Nearby

Air Quality

  Air Quality AQ Index Pollutant
Not available.

Snow Depth

Station Depth Elevation

Earthquake Activity

City Distance Mag. Time & Date
Minimum magnitude displayed is 2.5.

Coastal Water Temperatures

Place Temperature

Stations

Nearby Weather Stations

Station Location Temp. Windchill Dew Point Humidity Wind Precip. Elev Updated Type